sensor_id;sensor_type;location;lat;lon;timestamp;P1;durP1;ratioP1;P2;durP2;ratioP2
39078;SDS011;24829;49.208;12.080;2022-10-16T00:00:44;8.70;;;3.33;;
39078;SDS011;24829;49.208;12.080;2022-10-16T00:03:10;16.55;;;3.65;;
39078;SDS011;24829;49.208;12.080;2022-10-16T00:05:40;9.20;;;3.85;;
39078;SDS011;24829;49.208;12.080;2022-10-16T00:08:07;3.42;;;2.78;;
39078;SDS011;24829;49.208;12.080;2022-10-16T00:10:33;6.30;;;3.05;;
39078;SDS011;24829;49.208;12.080;2022-10-16T00:12:59;9.68;;;2.58;;
39078;SDS011;24829;49.208;12.080;2022-10-16T00:15:25;8.00;;;2.88;;
39078;SDS011;24829;49.208;12.080;2022-10-16T00:17:50;7.30;;;3.20;;
39078;SDS011;24829;49.208;12.080;2022-10-16T00:20:16;4.70;;;2.90;;
39078;SDS011;24829;49.208;12.080;2022-10-16T00:22:41;5.35;;;3.30;;
39078;SDS011;24829;49.208;12.080;2022-10-16T00:25:07;9.88;;;3.30;;
39078;SDS011;24829;49.208;12.080;2022-10-16T00:27:33;9.40;;;3.28;;
39078;SDS011;24829;49.208;12.080;2022-10-16T00:29:59;10.95;;;2.72;;
39078;SDS011;24829;49.208;12.080;2022-10-16T00:32:25;8.70;;;2.65;;
39078;SDS011;24829;49.208;12.080;2022-10-16T00:34:50;5.78;;;3.08;;
39078;SDS011;24829;49.208;12.080;2022-10-16T00:37:16;3.45;;;2.72;;
39078;SDS011;24829;49.208;12.080;2022-10-16T00:39:41;7.10;;;2.70;;
39078;SDS011;24829;49.208;12.080;2022-10-16T00:42:09;6.25;;;2.75;;
39078;SDS011;24829;49.208;12.080;2022-10-16T00:44:43;5.80;;;2.78;;
39078;SDS011;24829;49.208;12.080;2022-10-16T00:47:21;4.95;;;2.75;;
39078;SDS011;24829;49.208;12.080;2022-10-16T00:50:10;6.60;;;2.60;;
39078;SDS011;24829;49.208;12.080;2022-10-16T00:52:48;4.85;;;2.90;;
39078;SDS011;24829;49.208;12.080;2022-10-16T00:55:16;5.65;;;2.60;;
39078;SDS011;24829;49.208;12.080;2022-10-16T00:57:42;4.85;;;2.95;;
39078;SDS011;24829;49.208;12.080;2022-10-16T01:00:10;7.32;;;2.40;;
39078;SDS011;24829;49.208;12.080;2022-10-16T01:02:38;6.20;;;2.50;;
39078;SDS011;24829;49.208;12.080;2022-10-16T01:05:04;6.88;;;2.70;;
39078;SDS011;24829;49.208;12.080;2022-10-16T01:12:42;7.85;;;2.67;;
39078;SDS011;24829;49.208;12.080;2022-10-16T01:20:29;4.30;;;2.50;;
39078;SDS011;24829;49.208;12.080;2022-10-16T01:25:44;6.03;;;2.17;;
39078;SDS011;24829;49.208;12.080;2022-10-16T01:31:26;5.22;;;2.65;;
39078;SDS011;24829;49.208;12.080;2022-10-16T01:34:05;5.30;;;2.35;;
39078;SDS011;24829;49.208;12.080;2022-10-16T01:36:38;3.33;;;2.15;;
39078;SDS011;24829;49.208;12.080;2022-10-16T01:39:06;5.53;;;2.90;;
39078;SDS011;24829;49.208;12.080;2022-10-16T01:41:40;6.78;;;2.38;;
39078;SDS011;24829;49.208;12.080;2022-10-16T01:44:11;6.90;;;2.47;;
39078;SDS011;24829;49.208;12.080;2022-10-16T01:46:44;6.55;;;2.53;;
39078;SDS011;24829;49.208;12.080;2022-10-16T01:49:13;5.72;;;2.70;;
39078;SDS011;24829;49.208;12.080;2022-10-16T01:51:40;7.53;;;2.88;;
39078;SDS011;24829;49.208;12.080;2022-10-16T01:54:08;9.52;;;2.88;;
39078;SDS011;24829;49.208;12.080;2022-10-16T01:56:36;7.43;;;2.47;;
39078;SDS011;24829;49.208;12.080;2022-10-16T01:59:06;11.45;;;3.03;;
39078;SDS011;24829;49.208;12.080;2022-10-16T02:01:37;11.52;;;3.60;;
39078;SDS011;24829;49.208;12.080;2022-10-16T02:04:15;6.20;;;2.80;;
39078;SDS011;24829;49.208;12.080;2022-10-16T02:06:43;7.35;;;3.47;;
39078;SDS011;24829;49.208;12.080;2022-10-16T02:09:09;5.93;;;3.00;;
39078;SDS011;24829;49.208;12.080;2022-10-16T02:11:35;6.55;;;2.28;;
39078;SDS011;24829;49.208;12.080;2022-10-16T02:14:02;4.68;;;2.92;;
39078;SDS011;24829;49.208;12.080;2022-10-16T02:16:34;6.05;;;2.97;;
39078;SDS011;24829;49.208;12.080;2022-10-16T02:19:08;4.40;;;2.45;;
39078;SDS011;24829;49.208;12.080;2022-10-16T02:21:42;6.70;;;2.60;;
39078;SDS011;24829;49.208;12.080;2022-10-16T02:26:51;5.95;;;2.65;;
39078;SDS011;24829;49.208;12.080;2022-10-16T02:29:25;9.00;;;3.00;;
39078;SDS011;24829;49.208;12.080;2022-10-16T02:31:58;5.35;;;2.67;;
39078;SDS011;24829;49.208;12.080;2022-10-16T02:34:27;4.45;;;2.65;;
39078;SDS011;24829;49.208;12.080;2022-10-16T02:36:55;4.47;;;2.97;;
39078;SDS011;24829;49.208;12.080;2022-10-16T02:39:22;10.77;;;3.08;;
39078;SDS011;24829;49.208;12.080;2022-10-16T02:41:48;7.78;;;3.42;;
39078;SDS011;24829;49.208;12.080;2022-10-16T02:44:14;11.23;;;3.80;;
39078;SDS011;24829;49.208;12.080;2022-10-16T02:46:39;5.22;;;3.30;;
39078;SDS011;24829;49.208;12.080;2022-10-16T02:49:05;6.13;;;3.78;;
39078;SDS011;24829;49.208;12.080;2022-10-16T02:51:30;9.98;;;3.30;;
39078;SDS011;24829;49.208;12.080;2022-10-16T02:53:56;7.45;;;3.60;;
39078;SDS011;24829;49.208;12.080;2022-10-16T02:56:21;7.03;;;3.25;;
39078;SDS011;24829;49.208;12.080;2022-10-16T02:58:47;5.15;;;3.90;;
39078;SDS011;24829;49.208;12.080;2022-10-16T03:01:13;6.40;;;3.60;;
39078;SDS011;24829;49.208;12.080;2022-10-16T03:03:39;8.00;;;3.60;;
39078;SDS011;24829;49.208;12.080;2022-10-16T03:06:04;7.88;;;3.42;;
39078;SDS011;24829;49.208;12.080;2022-10-16T03:08:31;7.45;;;3.92;;
39078;SDS011;24829;49.208;12.080;2022-10-16T03:10:56;6.45;;;3.42;;
39078;SDS011;24829;49.208;12.080;2022-10-16T03:13:22;6.03;;;3.80;;
39078;SDS011;24829;49.208;12.080;2022-10-16T03:15:47;9.02;;;3.35;;
39078;SDS011;24829;49.208;12.080;2022-10-16T03:18:13;6.63;;;3.55;;
39078;SDS011;24829;49.208;12.080;2022-10-16T03:20:39;7.25;;;3.42;;
39078;SDS011;24829;49.208;12.080;2022-10-16T03:23:04;6.22;;;3.13;;
39078;SDS011;24829;49.208;12.080;2022-10-16T03:25:30;6.07;;;2.53;;
39078;SDS011;24829;49.208;12.080;2022-10-16T03:27:55;4.20;;;3.75;;
39078;SDS011;24829;49.208;12.080;2022-10-16T03:30:21;5.82;;;3.30;;
39078;SDS011;24829;49.208;12.080;2022-10-16T03:32:46;6.78;;;3.28;;
39078;SDS011;24829;49.208;12.080;2022-10-16T03:35:12;5.75;;;3.28;;
39078;SDS011;24829;49.208;12.080;2022-10-16T03:37:38;6.95;;;3.45;;
39078;SDS011;24829;49.208;12.080;2022-10-16T03:40:04;5.63;;;3.35;;
39078;SDS011;24829;49.208;12.080;2022-10-16T03:42:30;7.95;;;3.40;;
39078;SDS011;24829;49.208;12.080;2022-10-16T03:44:55;4.32;;;2.85;;
39078;SDS011;24829;49.208;12.080;2022-10-16T03:47:21;6.22;;;3.33;;
39078;SDS011;24829;49.208;12.080;2022-10-16T03:49:48;7.38;;;3.03;;
39078;SDS011;24829;49.208;12.080;2022-10-16T03:52:14;4.22;;;3.00;;
39078;SDS011;24829;49.208;12.080;2022-10-16T03:54:39;4.07;;;2.83;;
39078;SDS011;24829;49.208;12.080;2022-10-16T03:57:05;7.90;;;3.03;;
39078;SDS011;24829;49.208;12.080;2022-10-16T03:59:32;7.97;;;2.83;;
39078;SDS011;24829;49.208;12.080;2022-10-16T04:01:57;4.40;;;2.95;;
39078;SDS011;24829;49.208;12.080;2022-10-16T04:04:23;11.40;;;3.40;;
39078;SDS011;24829;49.208;12.080;2022-10-16T04:06:49;4.32;;;2.85;;
39078;SDS011;24829;49.208;12.080;2022-10-16T04:09:15;4.80;;;3.03;;
39078;SDS011;24829;49.208;12.080;2022-10-16T04:11:41;6.55;;;3.20;;
39078;SDS011;24829;49.208;12.080;2022-10-16T04:14:06;7.80;;;3.30;;
39078;SDS011;24829;49.208;12.080;2022-10-16T04:16:32;5.18;;;3.20;;
39078;SDS011;24829;49.208;12.080;2022-10-16T04:18:57;10.23;;;3.22;;
39078;SDS011;24829;49.208;12.080;2022-10-16T04:21:23;4.47;;;2.50;;
39078;SDS011;24829;49.208;12.080;2022-10-16T04:23:48;3.75;;;2.47;;
39078;SDS011;24829;49.208;12.080;2022-10-16T04:26:14;5.93;;;2.70;;
39078;SDS011;24829;49.208;12.080;2022-10-16T04:28:39;9.85;;;3.28;;
39078;SDS011;24829;49.208;12.080;2022-10-16T04:31:05;4.97;;;3.00;;
39078;SDS011;24829;49.208;12.080;2022-10-16T04:33:31;6.85;;;2.70;;
39078;SDS011;24829;49.208;12.080;2022-10-16T04:35:58;7.53;;;2.92;;
39078;SDS011;24829;49.208;12.080;2022-10-16T04:38:24;9.25;;;3.00;;
39078;SDS011;24829;49.208;12.080;2022-10-16T04:40:50;4.40;;;2.55;;
39078;SDS011;24829;49.208;12.080;2022-10-16T04:43:17;8.18;;;3.33;;
39078;SDS011;24829;49.208;12.080;2022-10-16T04:45:42;6.95;;;2.88;;
39078;SDS011;24829;49.208;12.080;2022-10-16T04:48:08;7.38;;;3.10;;
39078;SDS011;24829;49.208;12.080;2022-10-16T04:50:34;4.85;;;2.90;;
39078;SDS011;24829;49.208;12.080;2022-10-16T04:52:59;6.07;;;2.50;;
39078;SDS011;24829;49.208;12.080;2022-10-16T04:55:25;6.90;;;2.85;;
39078;SDS011;24829;49.208;12.080;2022-10-16T04:57:50;8.13;;;3.00;;
39078;SDS011;24829;49.208;12.080;2022-10-16T05:00:16;8.57;;;2.85;;
39078;SDS011;24829;49.208;12.080;2022-10-16T05:02:42;5.82;;;2.35;;
39078;SDS011;24829;49.208;12.080;2022-10-16T05:05:07;6.85;;;2.83;;
39078;SDS011;24829;49.208;12.080;2022-10-16T05:07:33;8.02;;;2.90;;
39078;SDS011;24829;49.208;12.080;2022-10-16T05:09:58;6.88;;;2.30;;
39078;SDS011;24829;49.208;12.080;2022-10-16T05:12:24;5.10;;;2.45;;
39078;SDS011;24829;49.208;12.080;2022-10-16T05:14:50;6.45;;;2.60;;
39078;SDS011;24829;49.208;12.080;2022-10-16T05:17:15;9.20;;;3.17;;
39078;SDS011;24829;49.208;12.080;2022-10-16T05:19:41;3.95;;;2.53;;
39078;SDS011;24829;49.208;12.080;2022-10-16T05:22:06;3.20;;;2.28;;
39078;SDS011;24829;49.208;12.080;2022-10-16T05:24:32;8.25;;;2.35;;
39078;SDS011;24829;49.208;12.080;2022-10-16T05:26:57;8.68;;;3.35;;
39078;SDS011;24829;49.208;12.080;2022-10-16T05:29:23;5.80;;;1.98;;
39078;SDS011;24829;49.208;12.080;2022-10-16T05:31:52;9.07;;;3.20;;
39078;SDS011;24829;49.208;12.080;2022-10-16T05:34:18;3.70;;;2.20;;
39078;SDS011;24829;49.208;12.080;2022-10-16T05:36:44;5.63;;;2.78;;
39078;SDS011;24829;49.208;12.080;2022-10-16T05:39:10;5.32;;;2.17;;
39078;SDS011;24829;49.208;12.080;2022-10-16T05:41:36;4.80;;;2.20;;
39078;SDS011;24829;49.208;12.080;2022-10-16T05:44:05;3.92;;;2.35;;
39078;SDS011;24829;49.208;12.080;2022-10-16T05:46:31;4.30;;;2.72;;
39078;SDS011;24829;49.208;12.080;2022-10-16T05:48:57;6.05;;;2.70;;
39078;SDS011;24829;49.208;12.080;2022-10-16T05:51:23;4.80;;;2.75;;
39078;SDS011;24829;49.208;12.080;2022-10-16T05:53:49;3.80;;;2.70;;
39078;SDS011;24829;49.208;12.080;2022-10-16T05:56:16;6.60;;;2.80;;
39078;SDS011;24829;49.208;12.080;2022-10-16T05:58:42;6.85;;;2.92;;
39078;SDS011;24829;49.208;12.080;2022-10-16T06:01:13;6.72;;;3.03;;
39078;SDS011;24829;49.208;12.080;2022-10-16T06:03:43;6.80;;;2.60;;
39078;SDS011;24829;49.208;12.080;2022-10-16T06:08:42;4.53;;;3.13;;
39078;SDS011;24829;49.208;12.080;2022-10-16T06:11:10;5.20;;;2.35;;
39078;SDS011;24829;49.208;12.080;2022-10-16T06:13:37;7.57;;;3.50;;
39078;SDS011;24829;49.208;12.080;2022-10-16T06:16:04;8.43;;;2.95;;
39078;SDS011;24829;49.208;12.080;2022-10-16T06:18:29;6.80;;;3.13;;
39078;SDS011;24829;49.208;12.080;2022-10-16T06:20:56;5.72;;;2.72;;
39078;SDS011;24829;49.208;12.080;2022-10-16T06:23:22;6.68;;;2.95;;
39078;SDS011;24829;49.208;12.080;2022-10-16T06:25:48;6.00;;;3.00;;
39078;SDS011;24829;49.208;12.080;2022-10-16T06:28:14;4.43;;;3.20;;
39078;SDS011;24829;49.208;12.080;2022-10-16T06:30:40;6.55;;;2.92;;
39078;SDS011;24829;49.208;12.080;2022-10-16T06:33:08;15.68;;;9.80;;
39078;SDS011;24829;49.208;12.080;2022-10-16T06:35:35;40.55;;;24.30;;
39078;SDS011;24829;49.208;12.080;2022-10-16T06:38:01;16.45;;;11.02;;
39078;SDS011;24829;49.208;12.080;2022-10-16T06:40:26;8.55;;;3.65;;
39078;SDS011;24829;49.208;12.080;2022-10-16T06:42:54;9.60;;;6.55;;
39078;SDS011;24829;49.208;12.080;2022-10-16T06:45:20;7.80;;;4.22;;
39078;SDS011;24829;49.208;12.080;2022-10-16T06:47:45;4.68;;;3.83;;
39078;SDS011;24829;49.208;12.080;2022-10-16T06:50:11;7.18;;;5.93;;
39078;SDS011;24829;49.208;12.080;2022-10-16T06:52:36;17.33;;;8.20;;
39078;SDS011;24829;49.208;12.080;2022-10-16T06:55:02;8.48;;;6.47;;
39078;SDS011;24829;49.208;12.080;2022-10-16T06:57:28;49.53;;;36.25;;
39078;SDS011;24829;49.208;12.080;2022-10-16T06:59:54;66.53;;;46.50;;
39078;SDS011;24829;49.208;12.080;2022-10-16T07:02:19;115.55;;;91.18;;
39078;SDS011;24829;49.208;12.080;2022-10-16T07:04:45;40.33;;;29.23;;
39078;SDS011;24829;49.208;12.080;2022-10-16T07:07:10;40.42;;;28.38;;
39078;SDS011;24829;49.208;12.080;2022-10-16T07:09:36;19.88;;;14.20;;
39078;SDS011;24829;49.208;12.080;2022-10-16T07:12:02;72.60;;;56.10;;
39078;SDS011;24829;49.208;12.080;2022-10-16T07:14:28;119.18;;;91.57;;
39078;SDS011;24829;49.208;12.080;2022-10-16T07:16:54;26.63;;;21.55;;
39078;SDS011;24829;49.208;12.080;2022-10-16T07:19:20;58.45;;;45.65;;
39078;SDS011;24829;49.208;12.080;2022-10-16T07:21:46;8.68;;;5.45;;
39078;SDS011;24829;49.208;12.080;2022-10-16T07:24:13;35.20;;;28.92;;
39078;SDS011;24829;49.208;12.080;2022-10-16T07:26:40;43.15;;;30.20;;
39078;SDS011;24829;49.208;12.080;2022-10-16T07:29:11;14.05;;;9.95;;
39078;SDS011;24829;49.208;12.080;2022-10-16T07:31:39;10.15;;;8.63;;
39078;SDS011;24829;49.208;12.080;2022-10-16T07:34:04;14.80;;;13.05;;
39078;SDS011;24829;49.208;12.080;2022-10-16T07:36:30;14.55;;;11.25;;
39078;SDS011;24829;49.208;12.080;2022-10-16T07:38:56;19.20;;;16.38;;
39078;SDS011;24829;49.208;12.080;2022-10-16T07:41:21;15.32;;;12.52;;
39078;SDS011;24829;49.208;12.080;2022-10-16T07:43:51;24.13;;;16.35;;
39078;SDS011;24829;49.208;12.080;2022-10-16T07:46:18;8.18;;;4.78;;
39078;SDS011;24829;49.208;12.080;2022-10-16T07:48:44;9.57;;;5.10;;
39078;SDS011;24829;49.208;12.080;2022-10-16T07:51:13;5.35;;;3.85;;
39078;SDS011;24829;49.208;12.080;2022-10-16T07:53:39;9.32;;;3.65;;
39078;SDS011;24829;49.208;12.080;2022-10-16T07:56:05;22.63;;;10.38;;
39078;SDS011;24829;49.208;12.080;2022-10-16T07:58:32;9.80;;;5.38;;
39078;SDS011;24829;49.208;12.080;2022-10-16T08:00:59;6.00;;;3.05;;
39078;SDS011;24829;49.208;12.080;2022-10-16T08:03:29;6.30;;;3.60;;
39078;SDS011;24829;49.208;12.080;2022-10-16T08:05:56;3.90;;;2.83;;
39078;SDS011;24829;49.208;12.080;2022-10-16T08:08:22;10.93;;;3.95;;
39078;SDS011;24829;49.208;12.080;2022-10-16T08:10:48;4.97;;;3.58;;
39078;SDS011;24829;49.208;12.080;2022-10-16T08:13:14;11.85;;;7.65;;
39078;SDS011;24829;49.208;12.080;2022-10-16T08:15:40;7.03;;;3.30;;
39078;SDS011;24829;49.208;12.080;2022-10-16T08:18:07;4.88;;;2.58;;
39078;SDS011;24829;49.208;12.080;2022-10-16T08:20:33;5.10;;;2.05;;
39078;SDS011;24829;49.208;12.080;2022-10-16T08:22:59;6.53;;;1.77;;
39078;SDS011;24829;49.208;12.080;2022-10-16T08:25:26;9.73;;;1.70;;
39078;SDS011;24829;49.208;12.080;2022-10-16T08:27:52;6.07;;;2.17;;
39078;SDS011;24829;49.208;12.080;2022-10-16T08:30:18;5.53;;;2.03;;
39078;SDS011;24829;49.208;12.080;2022-10-16T08:32:44;7.22;;;2.50;;
39078;SDS011;24829;49.208;12.080;2022-10-16T08:35:11;4.93;;;2.22;;
39078;SDS011;24829;49.208;12.080;2022-10-16T08:37:38;5.95;;;3.00;;
39078;SDS011;24829;49.208;12.080;2022-10-16T08:40:04;9.60;;;2.28;;
39078;SDS011;24829;49.208;12.080;2022-10-16T08:50:28;4.60;;;2.17;;
39078;SDS011;24829;49.208;12.080;2022-10-16T08:52:56;4.63;;;2.33;;
39078;SDS011;24829;49.208;12.080;2022-10-16T08:58:09;5.00;;;1.67;;
39078;SDS011;24829;49.208;12.080;2022-10-16T09:00:38;4.18;;;2.00;;
39078;SDS011;24829;49.208;12.080;2022-10-16T09:03:21;4.40;;;1.75;;
39078;SDS011;24829;49.208;12.080;2022-10-16T09:06:04;7.88;;;4.35;;
39078;SDS011;24829;49.208;12.080;2022-10-16T09:20:33;3.67;;;1.50;;
39078;SDS011;24829;49.208;12.080;2022-10-16T09:22:51;5.90;;;1.73;;
39078;SDS011;24829;49.208;12.080;2022-10-16T09:25:39;4.72;;;1.50;;
39078;SDS011;24829;49.208;12.080;2022-10-16T09:28:08;4.03;;;1.50;;
39078;SDS011;24829;49.208;12.080;2022-10-16T09:30:34;7.05;;;1.67;;
39078;SDS011;24829;49.208;12.080;2022-10-16T09:33:01;4.25;;;1.75;;
39078;SDS011;24829;49.208;12.080;2022-10-16T09:35:37;4.53;;;1.90;;
39078;SDS011;24829;49.208;12.080;2022-10-16T09:38:03;5.90;;;2.00;;
39078;SDS011;24829;49.208;12.080;2022-10-16T09:40:30;8.13;;;1.95;;
39078;SDS011;24829;49.208;12.080;2022-10-16T09:45:55;4.25;;;1.40;;
39078;SDS011;24829;49.208;12.080;2022-10-16T09:48:31;5.60;;;1.80;;
39078;SDS011;24829;49.208;12.080;2022-10-16T09:51:03;4.15;;;1.60;;
39078;SDS011;24829;49.208;12.080;2022-10-16T09:53:43;1.90;;;1.45;;
39078;SDS011;24829;49.208;12.080;2022-10-16T09:56:11;4.95;;;1.50;;
39078;SDS011;24829;49.208;12.080;2022-10-16T09:58:49;3.28;;;1.92;;
39078;SDS011;24829;49.208;12.080;2022-10-16T10:01:17;3.63;;;1.85;;
39078;SDS011;24829;49.208;12.080;2022-10-16T10:03:44;4.40;;;1.75;;
39078;SDS011;24829;49.208;12.080;2022-10-16T10:06:21;2.13;;;1.48;;
39078;SDS011;24829;49.208;12.080;2022-10-16T10:14:20;2.30;;;1.67;;
39078;SDS011;24829;49.208;12.080;2022-10-16T10:16:52;2.28;;;1.80;;
39078;SDS011;24829;49.208;12.080;2022-10-16T10:19:27;5.60;;;2.67;;
39078;SDS011;24829;49.208;12.080;2022-10-16T10:21:53;5.72;;;1.55;;
39078;SDS011;24829;49.208;12.080;2022-10-16T10:24:19;4.85;;;1.70;;
39078;SDS011;24829;49.208;12.080;2022-10-16T10:26:49;10.15;;;1.80;;
39078;SDS011;24829;49.208;12.080;2022-10-16T10:32:47;4.70;;;1.75;;
39078;SDS011;24829;49.208;12.080;2022-10-16T10:35:36;7.25;;;1.73;;
39078;SDS011;24829;49.208;12.080;2022-10-16T10:43:53;7.43;;;2.28;;
39078;SDS011;24829;49.208;12.080;2022-10-16T10:52:21;4.18;;;1.83;;
39078;SDS011;24829;49.208;12.080;2022-10-16T10:57:21;2.28;;;1.98;;
39078;SDS011;24829;49.208;12.080;2022-10-16T11:07:37;2.22;;;1.30;;
39078;SDS011;24829;49.208;12.080;2022-10-16T11:10:13;4.28;;;1.90;;
39078;SDS011;24829;49.208;12.080;2022-10-16T11:12:44;1.88;;;1.27;;
39078;SDS011;24829;49.208;12.080;2022-10-16T11:15:18;6.10;;;2.08;;
39078;SDS011;24829;49.208;12.080;2022-10-16T11:17:54;3.78;;;2.63;;
39078;SDS011;24829;49.208;12.080;2022-10-16T11:20:30;5.13;;;2.20;;
39078;SDS011;24829;49.208;12.080;2022-10-16T11:23:07;6.63;;;1.52;;
39078;SDS011;24829;49.208;12.080;2022-10-16T11:25:39;6.13;;;2.03;;
39078;SDS011;24829;49.208;12.080;2022-10-16T11:35:44;2.45;;;1.58;;
39078;SDS011;24829;49.208;12.080;2022-10-16T11:38:27;4.07;;;1.63;;
39078;SDS011;24829;49.208;12.080;2022-10-16T11:41:02;3.58;;;1.70;;
39078;SDS011;24829;49.208;12.080;2022-10-16T11:44:14;2.60;;;1.48;;
39078;SDS011;24829;49.208;12.080;2022-10-16T11:46:42;4.20;;;1.40;;
39078;SDS011;24829;49.208;12.080;2022-10-16T11:49:14;6.90;;;1.80;;
39078;SDS011;24829;49.208;12.080;2022-10-16T11:51:45;2.72;;;1.60;;
39078;SDS011;24829;49.208;12.080;2022-10-16T11:56:46;4.03;;;1.30;;
39078;SDS011;24829;49.208;12.080;2022-10-16T12:01:51;4.88;;;1.50;;
39078;SDS011;24829;49.208;12.080;2022-10-16T12:04:50;5.32;;;1.48;;
39078;SDS011;24829;49.208;12.080;2022-10-16T12:07:30;2.85;;;1.48;;
39078;SDS011;24829;49.208;12.080;2022-10-16T12:13:01;3.85;;;2.15;;
39078;SDS011;24829;49.208;12.080;2022-10-16T12:15:29;3.38;;;1.40;;
39078;SDS011;24829;49.208;12.080;2022-10-16T12:17:56;5.50;;;1.92;;
39078;SDS011;24829;49.208;12.080;2022-10-16T12:20:24;3.60;;;1.48;;
39078;SDS011;24829;49.208;12.080;2022-10-16T12:22:58;4.05;;;1.70;;
39078;SDS011;24829;49.208;12.080;2022-10-16T12:25:29;2.95;;;1.50;;
39078;SDS011;24829;49.208;12.080;2022-10-16T12:28:19;1.85;;;1.40;;
39078;SDS011;24829;49.208;12.080;2022-10-16T12:30:53;6.22;;;1.40;;
39078;SDS011;24829;49.208;12.080;2022-10-16T12:33:23;2.35;;;1.83;;
39078;SDS011;24829;49.208;12.080;2022-10-16T12:35:51;5.53;;;1.58;;
39078;SDS011;24829;49.208;12.080;2022-10-16T12:38:18;5.03;;;1.45;;
39078;SDS011;24829;49.208;12.080;2022-10-16T12:46:39;4.28;;;1.30;;
39078;SDS011;24829;49.208;12.080;2022-10-16T12:49:14;2.58;;;1.30;;
39078;SDS011;24829;49.208;12.080;2022-10-16T12:51:49;3.13;;;1.30;;
39078;SDS011;24829;49.208;12.080;2022-10-16T12:54:28;3.50;;;1.35;;
39078;SDS011;24829;49.208;12.080;2022-10-16T12:57:05;3.28;;;1.30;;
39078;SDS011;24829;49.208;12.080;2022-10-16T13:17:35;4.35;;;1.30;;
39078;SDS011;24829;49.208;12.080;2022-10-16T13:28:12;7.43;;;1.60;;
39078;SDS011;24829;49.208;12.080;2022-10-16T13:30:42;4.72;;;1.65;;
39078;SDS011;24829;49.208;12.080;2022-10-16T13:36:00;2.95;;;1.60;;
39078;SDS011;24829;49.208;12.080;2022-10-16T13:38:27;3.60;;;1.40;;
39078;SDS011;24829;49.208;12.080;2022-10-16T13:41:00;1.98;;;1.40;;
39078;SDS011;24829;49.208;12.080;2022-10-16T13:43:28;3.20;;;1.50;;
39078;SDS011;24829;49.208;12.080;2022-10-16T13:46:01;3.65;;;1.27;;
39078;SDS011;24829;49.208;12.080;2022-10-16T13:48:29;6.10;;;1.40;;
39078;SDS011;24829;49.208;12.080;2022-10-16T13:51:14;4.95;;;1.30;;
39078;SDS011;24829;49.208;12.080;2022-10-16T13:53:42;3.22;;;1.50;;
39078;SDS011;24829;49.208;12.080;2022-10-16T13:56:15;10.23;;;1.50;;
39078;SDS011;24829;49.208;12.080;2022-10-16T13:58:42;6.20;;;3.42;;
39078;SDS011;24829;49.208;12.080;2022-10-16T14:01:16;3.75;;;2.40;;
39078;SDS011;24829;49.208;12.080;2022-10-16T14:03:45;5.72;;;2.03;;
39078;SDS011;24829;49.208;12.080;2022-10-16T14:06:13;7.05;;;1.75;;
39078;SDS011;24829;49.208;12.080;2022-10-16T14:08:43;4.13;;;1.80;;
39078;SDS011;24829;49.208;12.080;2022-10-16T14:13:46;3.80;;;1.77;;
39078;SDS011;24829;49.208;12.080;2022-10-16T14:16:16;5.07;;;1.40;;
39078;SDS011;24829;49.208;12.080;2022-10-16T14:18:50;2.95;;;1.60;;
39078;SDS011;24829;49.208;12.080;2022-10-16T14:21:20;11.02;;;2.35;;
39078;SDS011;24829;49.208;12.080;2022-10-16T14:23:46;4.18;;;1.20;;
39078;SDS011;24829;49.208;12.080;2022-10-16T14:26:12;4.85;;;1.48;;
39078;SDS011;24829;49.208;12.080;2022-10-16T14:28:41;5.75;;;1.85;;
39078;SDS011;24829;49.208;12.080;2022-10-16T14:31:21;7.57;;;1.58;;
39078;SDS011;24829;49.208;12.080;2022-10-16T14:33:48;7.40;;;1.40;;
39078;SDS011;24829;49.208;12.080;2022-10-16T14:36:14;3.55;;;1.63;;
39078;SDS011;24829;49.208;12.080;2022-10-16T14:38:55;3.75;;;1.88;;
39078;SDS011;24829;49.208;12.080;2022-10-16T14:41:22;3.13;;;1.90;;
39078;SDS011;24829;49.208;12.080;2022-10-16T14:43:50;6.47;;;1.35;;
39078;SDS011;24829;49.208;12.080;2022-10-16T14:46:22;3.97;;;1.45;;
39078;SDS011;24829;49.208;12.080;2022-10-16T14:51:34;9.23;;;1.98;;
39078;SDS011;24829;49.208;12.080;2022-10-16T14:54:00;2.72;;;1.58;;
39078;SDS011;24829;49.208;12.080;2022-10-16T14:56:30;3.15;;;1.15;;
39078;SDS011;24829;49.208;12.080;2022-10-16T14:59:07;4.50;;;1.50;;
39078;SDS011;24829;49.208;12.080;2022-10-16T15:01:40;8.55;;;1.75;;
39078;SDS011;24829;49.208;12.080;2022-10-16T15:04:08;4.93;;;1.70;;
39078;SDS011;24829;49.208;12.080;2022-10-16T15:06:36;4.40;;;1.85;;
39078;SDS011;24829;49.208;12.080;2022-10-16T15:09:02;2.88;;;1.52;;
39078;SDS011;24829;49.208;12.080;2022-10-16T15:11:28;3.38;;;1.58;;
39078;SDS011;24829;49.208;12.080;2022-10-16T15:13:56;5.28;;;1.60;;
39078;SDS011;24829;49.208;12.080;2022-10-16T15:16:21;3.80;;;1.15;;
39078;SDS011;24829;49.208;12.080;2022-10-16T15:18:47;4.45;;;1.40;;
39078;SDS011;24829;49.208;12.080;2022-10-16T15:21:21;5.03;;;1.40;;
39078;SDS011;24829;49.208;12.080;2022-10-16T15:23:55;1.55;;;1.10;;
39078;SDS011;24829;49.208;12.080;2022-10-16T15:26:22;3.17;;;1.38;;
39078;SDS011;24829;49.208;12.080;2022-10-16T15:28:48;4.22;;;1.70;;
39078;SDS011;24829;49.208;12.080;2022-10-16T15:31:14;3.85;;;1.00;;
39078;SDS011;24829;49.208;12.080;2022-10-16T15:33:40;3.83;;;1.40;;
39078;SDS011;24829;49.208;12.080;2022-10-16T15:36:06;2.10;;;1.40;;
39078;SDS011;24829;49.208;12.080;2022-10-16T15:38:32;2.47;;;1.63;;
39078;SDS011;24829;49.208;12.080;2022-10-16T15:40:57;4.13;;;1.35;;
39078;SDS011;24829;49.208;12.080;2022-10-16T15:43:23;6.82;;;1.50;;
39078;SDS011;24829;49.208;12.080;2022-10-16T15:45:59;2.20;;;1.27;;
39078;SDS011;24829;49.208;12.080;2022-10-16T15:48:29;5.90;;;1.50;;
39078;SDS011;24829;49.208;12.080;2022-10-16T15:50:55;4.25;;;1.60;;
39078;SDS011;24829;49.208;12.080;2022-10-16T15:53:21;9.00;;;1.52;;
39078;SDS011;24829;49.208;12.080;2022-10-16T15:55:47;4.93;;;1.55;;
39078;SDS011;24829;49.208;12.080;2022-10-16T15:58:12;4.75;;;1.80;;
39078;SDS011;24829;49.208;12.080;2022-10-16T16:00:38;5.70;;;1.80;;
39078;SDS011;24829;49.208;12.080;2022-10-16T16:03:04;4.93;;;1.63;;
39078;SDS011;24829;49.208;12.080;2022-10-16T16:05:29;4.25;;;1.60;;
39078;SDS011;24829;49.208;12.080;2022-10-16T16:07:55;2.25;;;1.52;;
39078;SDS011;24829;49.208;12.080;2022-10-16T16:10:23;3.25;;;1.40;;
39078;SDS011;24829;49.208;12.080;2022-10-16T16:12:49;2.28;;;1.77;;
39078;SDS011;24829;49.208;12.080;2022-10-16T16:15:17;2.72;;;1.77;;
39078;SDS011;24829;49.208;12.080;2022-10-16T16:17:44;11.07;;;2.20;;
39078;SDS011;24829;49.208;12.080;2022-10-16T16:20:10;3.67;;;1.70;;
39078;SDS011;24829;49.208;12.080;2022-10-16T16:22:36;4.47;;;1.70;;
39078;SDS011;24829;49.208;12.080;2022-10-16T16:25:02;3.28;;;1.88;;
39078;SDS011;24829;49.208;12.080;2022-10-16T16:27:28;7.45;;;2.35;;
39078;SDS011;24829;49.208;12.080;2022-10-16T16:29:54;3.28;;;1.83;;
39078;SDS011;24829;49.208;12.080;2022-10-16T16:32:21;5.40;;;2.13;;
39078;SDS011;24829;49.208;12.080;2022-10-16T16:34:46;6.07;;;1.88;;
39078;SDS011;24829;49.208;12.080;2022-10-16T16:37:12;8.02;;;1.77;;
39078;SDS011;24829;49.208;12.080;2022-10-16T16:39:38;3.30;;;2.25;;
39078;SDS011;24829;49.208;12.080;2022-10-16T16:42:03;3.10;;;2.08;;
39078;SDS011;24829;49.208;12.080;2022-10-16T16:44:31;5.55;;;2.22;;
39078;SDS011;24829;49.208;12.080;2022-10-16T16:46:57;5.95;;;2.15;;
39078;SDS011;24829;49.208;12.080;2022-10-16T16:49:22;4.15;;;2.03;;
39078;SDS011;24829;49.208;12.080;2022-10-16T16:51:48;9.40;;;2.78;;
39078;SDS011;24829;49.208;12.080;2022-10-16T16:54:13;2.85;;;2.13;;